Time;durP1;ratioP1;P1;durP2;ratioP2;P2;SDS_P1;SDS_P2;PMS_P1;PMS_P2;Temp;Humidity;BMP_temperature;BMP_pressure;BME280_temperature;BME280_humidity;BME280_pressure;Samples;Min_cycle;Max_cycle;Signal;HPM_P1;HPM_P2
2022/03/27 00:02:05;;;;;;;35.33;24.80;;;11.40;1.00;;;;;;5052191;28;20120;-81
2022/03/27 00:04:30;;;;;;;30.85;24.48;;;11.30;1.00;;;;;;5052947;28;20018;-81
2022/03/27 00:06:56;;;;;;;32.85;24.42;;;10.90;1.00;;;;;;5052994;28;20035;-81
2022/03/27 00:09:22;;;;;;;32.70;25.10;;;10.80;1.00;;;;;;5050485;28;20116;-82
2022/03/27 00:11:47;;;;;;;33.45;25.52;;;10.70;1.00;;;;;;5054708;28;20075;-81
2022/03/27 00:14:13;;;;;;;36.28;26.42;;;10.80;1.00;;;;;;5052744;28;20025;-81
2022/03/27 00:16:39;;;;;;;34.00;25.77;;;11.10;1.00;;;;;;5051931;28;20043;-81
2022/03/27 00:19:04;;;;;;;36.70;26.10;;;11.10;1.00;;;;;;5052799;28;20497;-81
2022/03/27 00:21:30;;;;;;;32.15;25.38;;;11.60;1.00;;;;;;5050941;28;20505;-81
2022/03/27 00:23:55;;;;;;;33.50;25.85;;;11.00;1.00;;;;;;5053361;28;20040;-81
2022/03/27 00:26:22;;;;;;;32.83;25.17;;;11.00;1.00;;;;;;5052047;28;20033;-81
2022/03/27 00:28:48;;;;;;;38.92;25.65;;;10.70;1.00;;;;;;5051153;28;20017;-81
2022/03/27 00:31:14;;;;;;;31.73;25.10;;;10.80;1.00;;;;;;5051760;28;20082;-81
2022/03/27 00:33:41;;;;;;;33.75;25.33;;;10.90;1.00;;;;;;5051961;28;20472;-81
2022/03/27 00:36:10;;;;;;;35.72;26.45;;;10.90;1.00;;;;;;5052064;28;20017;-81
2022/03/27 00:38:36;;;;;;;33.55;25.63;;;11.20;1.00;;;;;;5054320;28;20029;-81
2022/03/27 00:41:01;;;;;;;36.65;26.35;;;11.20;1.00;;;;;;5052282;28;20298;-81
2022/03/27 00:43:27;;;;;;;36.83;26.08;;;11.30;1.00;;;;;;5051404;28;20029;-81
2022/03/27 00:45:54;;;;;;;36.22;25.58;;;11.40;1.00;;;;;;5051226;28;20025;-81
2022/03/27 00:48:21;;;;;;;36.70;25.00;;;11.20;1.00;;;;;;5052428;28;20494;-81
2022/03/27 00:50:48;;;;;;;34.20;25.35;;;11.40;1.00;;;;;;5054253;28;20486;-81
2022/03/27 00:53:14;;;;;;;32.33;24.17;;;10.80;1.00;;;;;;5051576;28;20539;-81
2022/03/27 00:55:40;;;;;;;33.28;25.65;;;10.70;1.00;;;;;;5051726;28;20029;-81
2022/03/27 00:58:06;;;;;;;32.40;24.92;;;10.30;1.00;;;;;;5050040;28;20036;-81
2022/03/27 01:00:42;;;;;;;35.55;25.35;;;10.20;1.00;;;;;;5049757;28;20033;-81
2022/03/27 01:03:13;;;;;;;36.28;25.48;;;10.10;1.00;;;;;;5052072;28;20107;-81
2022/03/27 01:05:40;;;;;;;33.53;25.80;;;10.20;1.00;;;;;;5053277;28;20021;-81
2022/03/27 01:08:08;;;;;;;34.28;25.17;;;10.10;1.00;;;;;;5050669;28;20025;-81
2022/03/27 01:10:34;;;;;;;35.65;25.40;;;10.30;1.00;;;;;;5051373;28;20033;-81
2022/03/27 01:13:08;;;;;;;33.60;25.70;;;10.10;1.00;;;;;;5050986;28;20024;-80
2022/03/27 01:15:37;;;;;;;33.42;25.23;;;10.30;1.00;;;;;;5051367;28;20078;-81
2022/03/27 01:18:03;;;;;;;34.55;25.38;;;10.10;1.00;;;;;;5053112;28;20029;-81
2022/03/27 01:20:33;;;;;;;36.90;25.15;;;10.20;1.00;;;;;;5051518;28;20079;-81
2022/03/27 01:22:59;;;;;;;34.65;26.17;;;10.20;1.00;;;;;;5050840;28;20123;-81
2022/03/27 01:25:25;;;;;;;33.22;24.98;;;10.40;1.00;;;;;;5050991;28;20107;-81
2022/03/27 01:27:50;;;;;;;34.70;25.02;;;10.20;1.00;;;;;;5051257;28;20104;-81
2022/03/27 01:30:16;;;;;;;34.25;25.50;;;10.60;1.00;;;;;;5051314;28;20167;-81
2022/03/27 01:32:42;;;;;;;33.85;25.00;;;10.20;1.00;;;;;;5052934;28;20041;-81
2022/03/27 01:35:08;;;;;;;32.30;24.58;;;10.20;1.00;;;;;;5050882;28;20056;-81
2022/03/27 01:37:34;;;;;;;33.50;24.08;;;10.30;1.00;;;;;;5050785;28;20036;-81
2022/03/27 01:39:59;;;;;;;31.92;24.00;;;10.30;1.00;;;;;;5049295;28;20032;-81
2022/03/27 01:42:25;;;;;;;37.00;25.33;;;10.50;1.00;;;;;;5049166;28;20033;-81
2022/03/27 01:44:51;;;;;;;35.03;25.50;;;10.50;1.00;;;;;;5052767;28;20035;-80
2022/03/27 01:47:16;;;;;;;34.20;25.23;;;10.40;1.00;;;;;;5051656;28;20111;-81
2022/03/27 01:49:42;;;;;;;37.83;24.52;;;10.30;1.00;;;;;;5048886;28;20025;-81
2022/03/27 01:52:08;;;;;;;36.10;24.02;;;10.40;1.00;;;;;;5050317;28;20025;-81
2022/03/27 01:54:34;;;;;;;33.08;23.92;;;10.10;1.00;;;;;;5050852;28;20439;-81
2022/03/27 01:57:01;;;;;;;34.25;25.25;;;9.80;1.00;;;;;;5051628;28;20044;-81
2022/03/27 01:59:26;;;;;;;31.60;23.65;;;10.30;1.00;;;;;;5050236;28;20052;-81
2022/03/27 02:01:52;;;;;;;33.72;25.63;;;10.10;1.00;;;;;;5050291;28;20485;-81
2022/03/27 02:04:18;;;;;;;31.08;23.95;;;9.70;1.00;;;;;;5050591;28;20032;-81
2022/03/27 02:06:43;;;;;;;34.08;25.45;;;9.40;1.00;;;;;;5050564;28;20392;-81
2022/03/27 02:09:12;;;;;;;33.65;24.23;;;9.40;1.00;;;;;;5051089;28;20074;-81
2022/03/27 02:11:39;;;;;;;35.70;24.80;;;9.50;1.00;;;;;;5050856;28;20045;-81
2022/03/27 02:14:04;;;;;;;34.35;23.90;;;9.60;1.00;;;;;;5050157;28;20034;-81
2022/03/27 02:16:30;;;;;;;34.53;23.70;;;9.70;1.00;;;;;;5050122;28;20051;-81
2022/03/27 02:18:56;;;;;;;32.35;24.02;;;9.70;1.00;;;;;;5049052;28;20068;-81
2022/03/27 02:21:21;;;;;;;32.88;23.83;;;9.70;1.00;;;;;;5048595;28;20037;-81
2022/03/27 02:23:47;;;;;;;32.72;24.25;;;9.60;1.00;;;;;;5052342;28;20021;-81
2022/03/27 02:26:13;;;;;;;34.13;23.10;;;9.70;1.00;;;;;;5049836;28;20485;-80
2022/03/27 02:28:40;;;;;;;34.67;23.83;;;9.60;1.00;;;;;;5049795;28;20017;-80
2022/03/27 02:31:06;;;;;;;30.60;23.15;;;9.70;1.00;;;;;;5049879;28;20576;-81
2022/03/27 02:33:32;;;;;;;31.85;23.38;;;9.80;1.00;;;;;;5049807;28;20094;-81
2022/03/27 02:35:57;;;;;;;31.80;23.63;;;9.50;1.00;;;;;;5051341;28;20025;-81
2022/03/27 02:38:23;;;;;;;32.22;23.23;;;9.70;1.00;;;;;;5050733;28;20036;-81
2022/03/27 02:40:49;;;;;;;35.78;23.73;;;9.50;1.00;;;;;;5049572;28;20568;-81
2022/03/27 02:43:15;;;;;;;35.83;24.02;;;9.60;1.00;;;;;;5049574;28;20039;-81
2022/03/27 02:45:41;;;;;;;33.03;22.88;;;9.80;1.00;;;;;;5050127;28;20385;-81
2022/03/27 02:48:07;;;;;;;34.15;23.40;;;9.40;1.00;;;;;;5049835;28;20478;-81
2022/03/27 02:50:36;;;;;;;35.85;24.40;;;9.20;1.00;;;;;;5051591;28;20031;-81
2022/03/27 02:53:03;;;;;;;30.42;22.45;;;9.30;1.00;;;;;;5050054;28;20106;-81
2022/03/27 02:55:28;;;;;;;35.38;23.00;;;9.50;1.00;;;;;;5049383;28;20436;-81
2022/03/27 02:57:54;;;;;;;29.65;22.65;;;9.60;1.00;;;;;;5047979;28;20028;-81
2022/03/27 03:00:21;;;;;;;32.75;23.23;;;9.70;1.00;;;;;;5048224;28;20029;-81
2022/03/27 03:02:47;;;;;;;31.92;23.23;;;9.60;1.00;;;;;;5047319;28;20516;-81
2022/03/27 03:05:13;;;;;;;33.05;23.30;;;9.60;1.00;;;;;;5049774;28;20028;-81
2022/03/27 03:07:42;;;;;;;31.27;22.88;;;9.50;1.00;;;;;;5049449;28;20040;-81
2022/03/27 03:10:09;;;;;;;30.75;23.13;;;9.30;1.00;;;;;;5047414;28;20032;-80
2022/03/27 03:12:35;;;;;;;33.05;23.88;;;9.10;1.00;;;;;;5049705;28;20519;-81
2022/03/27 03:15:00;;;;;;;32.90;23.58;;;9.00;1.00;;;;;;5050170;28;20021;-80
2022/03/27 03:17:26;;;;;;;31.73;23.35;;;9.10;1.00;;;;;;5050786;28;20518;-81
2022/03/27 03:19:52;;;;;;;33.00;23.52;;;8.90;1.00;;;;;;5049464;28;20025;-81
2022/03/27 03:22:18;;;;;;;31.75;23.48;;;8.80;1.00;;;;;;5049310;28;20025;-81
2022/03/27 03:24:44;;;;;;;32.45;23.50;;;9.70;1.00;;;;;;5048886;28;20057;-81
2022/03/27 03:27:10;;;;;;;30.83;22.08;;;9.40;1.00;;;;;;5049749;28;20130;-81
2022/03/27 03:29:36;;;;;;;34.10;21.75;;;9.00;1.00;;;;;;5051919;28;20108;-81
2022/03/27 03:32:02;;;;;;;31.17;23.10;;;9.30;1.00;;;;;;5049128;28;20045;-81
2022/03/27 03:34:27;;;;;;;31.27;22.42;;;8.90;1.00;;;;;;5049084;28;20033;-81
2022/03/27 03:36:53;;;;;;;31.90;23.02;;;8.90;1.00;;;;;;5047756;28;20024;-81
2022/03/27 03:39:19;;;;;;;30.10;22.05;;;9.00;1.00;;;;;;5033174;28;20512;-81
2022/03/27 03:41:44;;;;;;;30.20;21.65;;;8.80;1.00;;;;;;5051047;28;20443;-82
2022/03/27 03:44:10;;;;;;;31.02;21.75;;;8.80;1.00;;;;;;5049435;28;20033;-80
2022/03/27 03:46:36;;;;;;;32.00;22.38;;;9.20;1.00;;;;;;5049430;28;20021;-81
2022/03/27 03:49:03;;;;;;;29.23;21.73;;;8.90;1.00;;;;;;5048981;28;20079;-81
2022/03/27 03:51:29;;;;;;;29.83;21.85;;;8.90;1.00;;;;;;5049286;28;20105;-82
2022/03/27 03:53:54;;;;;;;30.35;22.65;;;9.10;1.00;;;;;;5050076;28;20139;-81
2022/03/27 03:56:20;;;;;;;29.85;21.42;;;8.60;1.00;;;;;;5049629;28;20032;-80
2022/03/27 03:58:45;;;;;;;30.10;22.58;;;8.80;1.00;;;;;;5048989;28;20040;-81
2022/03/27 04:01:11;;;;;;;30.95;21.75;;;9.30;1.00;;;;;;5049012;28;20116;-81
2022/03/27 04:03:36;;;;;;;31.58;22.42;;;9.10;1.00;;;;;;5049151;28;20021;-81
2022/03/27 04:06:02;;;;;;;30.13;21.65;;;9.30;1.00;;;;;;5049901;28;20382;-81
2022/03/27 04:08:28;;;;;;;32.45;22.15;;;9.30;1.00;;;;;;5050149;28;20025;-81
2022/03/27 04:10:53;;;;;;;29.38;21.77;;;9.40;1.00;;;;;;5048664;28;20052;-82
2022/03/27 04:13:19;;;;;;;28.48;21.20;;;8.90;1.00;;;;;;5051573;28;20404;-81
2022/03/27 04:15:46;;;;;;;30.90;21.73;;;9.20;1.00;;;;;;5050931;28;20040;-82
2022/03/27 04:18:13;;;;;;;31.83;21.42;;;8.80;1.00;;;;;;5052969;28;20037;-82
2022/03/27 04:20:41;;;;;;;29.73;21.45;;;8.70;1.00;;;;;;5055051;28;20496;-81
2022/03/27 04:23:06;;;;;;;29.13;21.50;;;8.70;1.00;;;;;;5051786;28;20033;-81
2022/03/27 04:25:32;;;;;;;30.67;21.40;;;8.50;1.00;;;;;;5052300;28;20100;-81
2022/03/27 04:28:02;;;;;;;32.80;21.92;;;8.60;1.00;;;;;;5051184;28;20043;-82
2022/03/27 04:30:28;;;;;;;30.55;22.05;;;8.80;1.00;;;;;;5052812;28;20021;-81
2022/03/27 04:32:54;;;;;;;30.67;21.50;;;8.40;1.00;;;;;;5053213;28;20106;-82
2022/03/27 04:35:19;;;;;;;33.50;22.88;;;8.30;1.00;;;;;;5053111;28;20053;-81
2022/03/27 04:37:46;;;;;;;31.75;22.10;;;8.40;1.00;;;;;;5051489;28;20029;-81
2022/03/27 04:40:13;;;;;;;31.70;21.67;;;8.40;1.00;;;;;;5052227;28;20141;-81
2022/03/27 04:42:40;;;;;;;28.88;19.58;;;8.30;1.00;;;;;;5052058;28;20108;-82
2022/03/27 04:45:06;;;;;;;30.55;21.35;;;8.30;1.00;;;;;;5052050;28;20029;-81
2022/03/27 04:47:32;;;;;;;29.63;21.35;;;8.40;1.00;;;;;;5054234;28;20029;-82
2022/03/27 04:49:58;;;;;;;28.67;20.25;;;8.30;1.00;;;;;;5051747;28;20556;-82
2022/03/27 04:52:23;;;;;;;28.73;21.05;;;8.10;1.00;;;;;;5051650;28;20559;-82
2022/03/27 04:54:49;;;;;;;27.50;20.38;;;8.10;1.00;;;;;;5050323;28;20024;-82
2022/03/27 04:57:15;;;;;;;28.92;20.85;;;8.00;1.00;;;;;;5051606;28;20083;-81
2022/03/27 04:59:41;;;;;;;31.73;20.98;;;8.20;1.00;;;;;;5053387;28;20029;-81
2022/03/27 05:02:07;;;;;;;32.47;22.45;;;8.80;1.00;;;;;;5051796;28;20037;-82
2022/03/27 05:04:33;;;;;;;30.63;21.95;;;8.50;1.00;;;;;;5051117;28;20024;-82
2022/03/27 05:06:58;;;;;;;30.15;21.05;;;8.60;1.00;;;;;;5050517;28;20056;-81
2022/03/27 05:09:24;;;;;;;29.88;20.25;;;8.40;1.00;;;;;;5050685;28;20520;-81
2022/03/27 05:11:50;;;;;;;30.35;20.63;;;7.90;1.00;;;;;;5054108;28;20086;-81
2022/03/27 05:14:15;;;;;;;28.25;20.30;;;8.00;1.00;;;;;;5051355;28;20024;-82
2022/03/27 05:16:41;;;;;;;28.73;20.92;;;7.80;1.00;;;;;;5051507;28;20555;-81
2022/03/27 05:19:07;;;;;;;29.55;21.63;;;8.10;1.00;;;;;;5050798;28;20021;-82
2022/03/27 05:21:34;;;;;;;31.23;21.33;;;8.30;1.00;;;;;;5051447;28;20123;-82
2022/03/27 05:24:01;;;;;;;31.05;21.08;;;7.80;1.00;;;;;;5051214;28;20071;-81
2022/03/27 05:26:27;;;;;;;26.63;20.20;;;7.80;1.00;;;;;;5052531;28;20170;-82
2022/03/27 05:28:53;;;;;;;32.13;21.85;;;7.80;1.00;;;;;;5050970;28;20116;-81
2022/03/27 05:31:19;;;;;;;32.28;21.98;;;8.10;1.00;;;;;;5050846;28;20036;-82
2022/03/27 05:33:45;;;;;;;27.65;20.58;;;7.80;1.00;;;;;;5051052;28;20048;-81
2022/03/27 05:36:11;;;;;;;30.30;21.23;;;8.10;1.00;;;;;;5051280;28;20034;-81
2022/03/27 05:38:38;;;;;;;32.72;22.00;;;8.00;1.00;;;;;;5051806;28;20380;-81
2022/03/27 05:41:05;;;;;;;28.95;21.13;;;7.70;1.00;;;;;;5051502;28;20045;-81
2022/03/27 05:43:30;;;;;;;30.50;21.52;;;7.60;1.00;;;;;;5050745;28;20024;-81
2022/03/27 05:45:56;;;;;;;28.38;20.00;;;8.10;1.00;;;;;;5050609;28;20037;-82
2022/03/27 05:48:22;;;;;;;31.60;20.85;;;7.80;1.00;;;;;;5051375;28;20490;-82
2022/03/27 05:50:47;;;;;;;28.33;20.58;;;8.10;1.00;;;;;;5048494;28;20025;-81
2022/03/27 05:53:13;;;;;;;28.30;20.48;;;8.00;1.00;;;;;;5050702;28;20025;-81
2022/03/27 05:55:39;;;;;;;28.60;20.73;;;8.40;1.00;;;;;;5050561;28;20052;-82
2022/03/27 05:58:05;;;;;;;26.65;20.45;;;8.40;1.00;;;;;;5050863;28;20540;-82
2022/03/27 06:00:31;;;;;;;30.38;21.30;;;8.00;1.00;;;;;;5050568;28;20082;-81
2022/03/27 06:02:56;;;;;;;29.63;20.90;;;8.00;1.00;;;;;;5050131;28;20397;-82
2022/03/27 06:05:25;;;;;;;31.98;21.83;;;7.90;1.00;;;;;;5051021;28;20021;-81
2022/03/27 06:07:56;;;;;;;27.13;20.42;;;7.90;1.00;;;;;;5050223;28;20407;-92
2022/03/27 06:10:31;;;;;;;25.17;18.98;;;8.00;1.00;;;;;;5051367;28;20017;-86
2022/03/27 06:12:57;;;;;;;30.35;21.00;;;8.90;1.00;;;;;;5049996;28;20073;-86
2022/03/27 06:15:24;;;;;;;27.95;19.90;;;9.00;1.00;;;;;;5049878;28;20075;-86
2022/03/27 06:17:51;;;;;;;26.63;19.02;;;9.50;1.00;;;;;;5052271;28;20040;-86
2022/03/27 06:20:20;;;;;;;24.38;18.20;;;9.20;1.00;;;;;;5049421;28;20044;-86
2022/03/27 06:22:46;;;;;;;27.13;18.88;;;9.30;1.00;;;;;;5049321;28;20029;-85
2022/03/27 06:25:14;;;;;;;27.95;18.67;;;9.90;1.00;;;;;;5050766;28;20033;-85
2022/03/27 06:27:40;;;;;;;29.70;19.75;;;9.70;1.00;;;;;;5050630;28;20029;-85
2022/03/27 06:30:08;;;;;;;26.20;19.23;;;9.60;1.00;;;;;;5051325;28;20032;-86
2022/03/27 06:32:34;;;;;;;24.98;18.75;;;9.60;1.00;;;;;;5049252;28;20417;-86
2022/03/27 06:35:00;;;;;;;28.40;19.92;;;9.60;1.00;;;;;;5050496;28;20109;-86
2022/03/27 06:37:26;;;;;;;25.20;18.88;;;9.80;1.00;;;;;;5050430;28;20510;-86
2022/03/27 06:39:54;;;;;;;27.77;18.88;;;10.10;1.00;;;;;;5050723;28;20047;-86
2022/03/27 06:42:20;;;;;;;25.48;19.17;;;9.90;1.00;;;;;;5034805;28;20037;-85
2022/03/27 06:44:46;;;;;;;24.90;18.67;;;10.10;1.00;;;;;;5052541;28;20024;-86
2022/03/27 06:47:12;;;;;;;24.83;18.60;;;9.90;1.00;;;;;;5050330;28;20029;-86
2022/03/27 06:49:37;;;;;;;25.02;18.15;;;10.40;1.00;;;;;;5049223;28;20016;-85
2022/03/27 06:52:04;;;;;;;23.73;18.05;;;10.40;1.00;;;;;;5048796;28;20025;-86
2022/03/27 06:54:29;;;;;;;25.77;18.80;;;10.30;1.00;;;;;;5050582;28;20025;-85
2022/03/27 06:56:56;;;;;;;25.75;19.02;;;10.30;1.00;;;;;;5051687;28;20425;-85
2022/03/27 06:59:21;;;;;;;26.90;19.10;;;10.10;1.00;;;;;;5051547;28;20028;-85
2022/03/27 07:04:32;;;;;;;28.52;18.88;;;10.00;1.00;;;;;;5049812;28;20028;-86
2022/03/27 07:06:58;;;;;;;26.45;18.40;;;10.20;1.00;;;;;;5050189;28;20032;-85
2022/03/27 07:09:23;;;;;;;25.13;19.00;;;10.10;1.00;;;;;;5048654;28;20033;-86
2022/03/27 07:11:49;;;;;;;31.75;20.42;;;10.30;1.00;;;;;;5052763;28;20029;-86
2022/03/27 07:14:16;;;;;;;29.10;20.92;;;10.30;1.00;;;;;;5050047;28;20033;-86
2022/03/27 07:16:41;;;;;;;27.52;20.80;;;10.30;1.00;;;;;;5048996;28;20067;-86
2022/03/27 07:19:08;;;;;;;28.42;20.50;;;10.40;1.00;;;;;;5050338;28;20057;-85
2022/03/27 07:21:34;;;;;;;28.05;20.10;;;10.70;1.00;;;;;;5049818;28;20033;-85
2022/03/27 07:24:00;;;;;;;27.10;19.95;;;10.40;1.00;;;;;;5050967;28;20029;-86
2022/03/27 07:26:26;;;;;;;27.48;20.08;;;10.60;1.00;;;;;;5051039;28;20033;-86
2022/03/27 07:28:51;;;;;;;28.35;20.55;;;10.60;1.00;;;;;;5050212;28;20025;-86
2022/03/27 07:31:17;;;;;;;26.48;19.55;;;10.60;1.00;;;;;;5047758;28;20045;-85
2022/03/27 07:33:42;;;;;;;26.75;19.23;;;10.80;1.00;;;;;;5047232;28;20139;-86
2022/03/27 07:36:08;;;;;;;26.77;18.63;;;10.50;1.00;;;;;;5048877;28;20029;-85
2022/03/27 07:38:34;;;;;;;31.35;19.27;;;10.70;1.00;;;;;;5052113;28;20444;-85
2022/03/27 07:41:01;;;;;;;25.38;18.80;;;10.70;1.00;;;;;;5050251;28;20045;-86
2022/03/27 07:43:27;;;;;;;24.58;18.83;;;10.70;1.00;;;;;;5050135;28;20040;-86
2022/03/27 07:45:52;;;;;;;23.98;18.77;;;10.70;1.00;;;;;;5049869;28;20021;-86
2022/03/27 07:48:18;;;;;;;25.30;18.48;;;10.90;1.00;;;;;;5052761;28;20620;-85
2022/03/27 07:50:46;;;;;;;23.98;18.27;;;11.10;1.00;;;;;;5054433;28;20032;-85
2022/03/27 07:53:12;;;;;;;24.55;18.35;;;11.20;1.00;;;;;;5053481;28;20052;-85
2022/03/27 07:55:38;;;;;;;27.10;19.20;;;11.50;1.00;;;;;;5053474;28;20025;-86
2022/03/27 07:58:04;;;;;;;24.55;18.65;;;11.20;1.00;;;;;;5053536;28;20538;-86
2022/03/27 08:00:30;;;;;;;23.35;18.13;;;11.40;1.00;;;;;;5053568;28;20036;-85
2022/03/27 08:02:56;;;;;;;26.95;19.02;;;11.50;1.00;;;;;;5054627;28;20021;-85
2022/03/27 08:05:23;;;;;;;27.10;19.38;;;11.70;1.00;;;;;;5054179;28;20044;-85
2022/03/27 08:07:49;;;;;;;25.15;19.40;;;11.80;1.00;;;;;;5052506;28;20021;-86
2022/03/27 08:10:15;;;;;;;31.55;19.52;;;12.00;1.00;;;;;;5050245;28;20041;-85
2022/03/27 08:12:42;;;;;;;26.70;19.13;;;12.20;1.00;;;;;;5051885;28;20037;-86
2022/03/27 08:15:08;;;;;;;24.33;19.40;;;12.30;1.00;;;;;;5052184;28;20013;-86
2022/03/27 08:17:34;;;;;;;24.08;18.85;;;12.40;1.00;;;;;;5055198;28;20112;-86
2022/03/27 08:20:00;;;;;;;25.00;18.08;;;12.60;1.00;;;;;;5053090;28;20447;-86
2022/03/27 08:22:26;;;;;;;30.55;19.60;;;12.70;1.00;;;;;;5053363;28;20079;-86
2022/03/27 08:24:52;;;;;;;23.20;17.90;;;12.70;1.00;;;;;;5051749;28;20025;-86
2022/03/27 08:27:20;;;;;;;27.00;17.90;;;12.60;1.00;;;;;;5053182;28;20070;-86
2022/03/27 08:29:46;;;;;;;20.73;17.02;;;12.90;1.00;;;;;;5054691;28;20075;-85
2022/03/27 08:32:15;;;;;;;22.17;17.63;;;13.10;1.00;;;;;;5051351;28;20048;-85
2022/03/27 08:34:43;;;;;;;22.38;16.55;;;13.10;1.00;;;;;;5053521;28;20029;-86
2022/03/27 08:37:12;;;;;;;22.77;17.88;;;13.40;1.00;;;;;;5053282;28;20484;-86
2022/03/27 08:39:39;;;;;;;21.92;17.35;;;13.60;1.00;;;;;;5052421;28;20025;-85
2022/03/27 08:42:06;;;;;;;22.48;18.02;;;13.70;1.00;;;;;;5053336;28;20047;-86
2022/03/27 08:44:34;;;;;;;24.25;17.13;;;13.70;1.00;;;;;;5054613;28;20025;-86
2022/03/27 08:47:02;;;;;;;25.20;17.20;;;13.90;1.00;;;;;;5053191;28;20029;-86
2022/03/27 08:49:48;;;;;;;24.25;16.92;;;14.00;1.00;;;;;;5050971;28;20063;-86
2022/03/27 08:52:17;;;;;;;21.38;16.88;;;14.10;1.00;;;;;;5050880;28;20543;-86
2022/03/27 08:55:06;;;;;;;24.85;18.15;;;14.20;1.00;;;;;;5052479;28;20032;-86
2022/03/27 08:57:50;;;;;;;23.10;17.85;;;14.10;1.00;;;;;;5034746;28;20037;-86
2022/03/27 09:00:19;;;;;;;27.50;16.98;;;14.30;1.00;;;;;;5050157;28;20366;-86
2022/03/27 09:02:45;;;;;;;21.33;15.82;;;14.20;1.00;;;;;;5054666;28;20434;-86
2022/03/27 09:05:11;;;;;;;22.25;16.83;;;14.30;1.00;;;;;;5052306;28;20102;-86
2022/03/27 09:07:37;;;;;;;22.63;17.60;;;14.30;1.00;;;;;;5052258;28;20064;-86
2022/03/27 09:10:09;;;;;;;20.50;17.75;;;14.50;1.00;;;;;;5052189;28;20056;-86
2022/03/27 09:12:35;;;;;;;24.80;18.63;;;14.50;1.00;;;;;;5052702;28;20028;-86
2022/03/27 09:15:02;;;;;;;23.15;16.58;;;14.70;1.00;;;;;;5053137;28;20022;-86
2022/03/27 09:17:28;;;;;;;21.73;17.63;;;14.80;1.00;;;;;;5053187;28;20029;-85
2022/03/27 09:19:53;;;;;;;19.65;16.83;;;14.90;1.00;;;;;;5051962;28;20120;-86
2022/03/27 09:22:28;;;;;;;21.98;17.58;;;15.10;1.00;;;;;;5052276;28;20508;-86
2022/03/27 09:25:02;;;;;;;20.42;16.63;;;15.20;1.00;;;;;;5052431;28;20028;-85
2022/03/27 09:27:33;;;;;;;24.63;17.52;;;15.30;1.00;;;;;;5035735;28;20029;-86
2022/03/27 09:30:10;;;;;;;20.20;16.60;;;15.50;1.00;;;;;;5052663;28;20201;-86
2022/03/27 09:32:41;;;;;;;23.60;16.48;;;15.60;1.00;;;;;;5052051;28;20072;-86
2022/03/27 09:35:08;;;;;;;22.42;17.10;;;15.80;1.00;;;;;;5051792;28;20024;-86
2022/03/27 09:37:40;;;;;;;21.42;16.08;;;16.00;1.00;;;;;;5051554;28;20443;-86
2022/03/27 09:40:08;;;;;;;19.65;16.75;;;16.90;1.00;;;;;;5051472;28;20048;-86
2022/03/27 09:42:36;;;;;;;21.67;17.70;;;18.60;1.00;;;;;;5051539;28;20025;-86
2022/03/27 09:45:16;;;;;;;22.27;18.38;;;19.20;1.00;;;;;;5053376;28;20427;-87
2022/03/27 09:48:06;;;;;;;26.02;18.92;;;20.30;1.00;;;;;;5052991;28;20033;-86
2022/03/27 09:50:32;;;;;;;23.60;18.52;;;20.90;99.90;;;;;;5041938;28;20041;-87
2022/03/27 09:53:36;;;;;;;20.73;17.48;;;21.60;99.90;;;;;;5050337;28;20090;-87
2022/03/27 09:56:01;;;;;;;18.85;16.85;;;21.90;99.90;;;;;;5050738;28;20051;-86
2022/03/27 09:58:45;;;;;;;20.13;17.85;;;21.90;99.90;;;;;;5051548;28;20025;-86
2022/03/27 10:01:16;;;;;;;21.90;18.52;;;22.80;99.90;;;;;;5051075;28;20048;-86
2022/03/27 10:04:02;;;;;;;20.83;17.42;;;23.10;99.90;;;;;;5051112;28;20028;-86
2022/03/27 10:06:35;;;;;;;22.10;18.38;;;23.40;99.90;;;;;;5034929;28;20030;-87
2022/03/27 10:09:02;;;;;;;22.95;18.40;;;24.00;99.90;;;;;;5051938;28;20374;-89
2022/03/27 10:11:29;;;;;;;20.92;18.70;;;24.30;99.90;;;;;;5049568;28;20032;-87
2022/03/27 10:13:55;;;;;;;21.95;19.10;;;24.80;99.90;;;;;;5050168;28;20394;-86
2022/03/27 10:16:26;;;;;;;22.75;18.15;;;24.90;99.90;;;;;;5049834;28;20481;-89
2022/03/27 10:18:58;;;;;;;21.63;18.92;;;25.00;99.90;;;;;;5051725;28;20457;-86
2022/03/27 10:21:26;;;;;;;21.17;18.85;;;25.30;99.90;;;;;;5034188;28;20037;-88
2022/03/27 10:24:11;;;;;;;20.17;18.02;;;25.40;99.90;;;;;;5051760;28;20013;-87
2022/03/27 10:26:38;;;;;;;21.67;18.38;;;25.40;99.90;;;;;;5051323;28;20028;-86
2022/03/27 10:29:05;;;;;;;20.60;18.40;;;26.10;99.90;;;;;;5050832;28;20064;-87
2022/03/27 10:31:31;;;;;;;21.33;18.35;;;26.10;99.90;;;;;;5050271;28;20068;-88
2022/03/27 10:34:00;;;;;;;21.02;18.92;;;26.80;99.90;;;;;;5048177;28;20041;-87
2022/03/27 10:36:45;;;;;;;20.50;18.40;;;26.40;99.90;;;;;;5050715;28;20037;-87
2022/03/27 10:39:10;;;;;;;22.75;18.65;;;26.40;99.90;;;;;;5050363;28;20404;-88
2022/03/27 10:42:08;;;;;;;19.75;17.75;;;26.80;99.90;;;;;;5052488;28;20044;-85
2022/03/27 10:44:55;;;;;;;20.05;18.00;;;27.20;99.90;;;;;;5051021;28;20067;-86
2022/03/27 10:47:24;;;;;;;21.35;17.67;;;26.90;99.90;;;;;;5049542;28;20043;-88
2022/03/27 10:50:01;;;;;;;18.42;16.52;;;28.10;99.90;;;;;;5049839;28;20032;-90
2022/03/27 10:52:32;;;;;;;18.92;16.92;;;29.50;99.90;;;;;;5049212;28;20079;-90
2022/03/27 10:55:01;;;;;;;19.73;17.63;;;30.00;99.90;;;;;;5050980;28;20025;-85
2022/03/27 10:57:28;;;;;;;19.05;17.15;;;30.20;99.90;;;;;;5050500;28;20044;-88
2022/03/27 10:59:54;;;;;;;19.50;17.50;;;31.00;99.90;;;;;;5052352;28;20021;-91
2022/03/27 11:02:46;;;;;;;19.67;17.60;;;31.60;99.90;;;;;;5048691;28;20433;-88
2022/03/27 11:05:31;;;;;;;20.48;18.05;;;31.50;99.90;;;;;;5049435;28;20022;-87
2022/03/27 11:08:18;;;;;;;18.73;16.85;;;31.60;99.90;;;;;;5049654;28;20063;-88
2022/03/27 11:10:58;;;;;;;17.48;15.55;;;31.70;99.90;;;;;;5049722;28;20020;-89
2022/03/27 11:13:26;;;;;;;15.77;14.30;;;31.20;99.90;;;;;;5048422;28;20154;-90
2022/03/27 11:16:13;;;;;;;17.15;15.40;;;32.30;99.90;;;;;;5048780;28;20025;-90
2022/03/27 11:18:40;;;;;;;17.63;15.98;;;32.50;99.90;;;;;;5036831;28;20563;-89
2022/03/27 11:21:11;;;;;;;16.80;14.77;;;33.20;99.90;;;;;;5050354;28;20051;-87
2022/03/27 11:23:42;;;;;;;16.65;14.82;;;33.50;99.90;;;;;;5052927;28;20065;-91
2022/03/27 11:26:20;;;;;;;17.48;15.77;;;33.60;99.90;;;;;;5052834;28;20505;-89
2022/03/27 11:28:48;;;;;;;17.92;15.38;;;33.10;99.90;;;;;;5051947;28;20029;-90
2022/03/27 11:31:17;;;;;;;18.20;16.40;;;32.90;99.90;;;;;;5052444;28;20041;-90
2022/03/27 11:33:46;;;;;;;16.75;15.05;;;32.50;99.90;;;;;;5053562;28;20107;-89
2022/03/27 11:36:15;;;;;;;17.25;15.55;;;32.40;99.90;;;;;;5054424;28;20038;-88
2022/03/27 11:39:02;;;;;;;17.08;15.32;;;32.20;99.90;;;;;;5056035;28;20428;-88
2022/03/27 11:41:45;;;;;;;17.00;15.18;;;32.00;99.90;;;;;;5055159;28;20135;-88
2022/03/27 11:47:20;;;;;;;16.67;14.90;;;32.20;99.90;;;;;;5053715;28;20044;-88
2022/03/27 11:49:47;;;;;;;17.13;15.45;;;32.90;99.90;;;;;;5054338;28;20071;-88
2022/03/27 11:52:19;;;;;;;17.13;14.65;;;32.70;99.90;;;;;;5053637;28;20029;-88
2022/03/27 11:54:48;;;;;;;18.23;16.42;;;32.90;99.90;;;;;;5053883;28;20039;-88
2022/03/27 11:57:18;;;;;;;17.15;15.52;;;32.80;99.90;;;;;;5054285;28;20505;-88
2022/03/27 11:59:52;;;;;;;17.13;15.43;;;32.00;99.90;;;;;;5055741;28;20036;-88
2022/03/27 12:02:19;;;;;;;17.55;15.73;;;31.40;99.90;;;;;;5051677;28;20113;-89
2022/03/27 12:04:59;;;;;;;17.77;15.55;;;31.70;99.90;;;;;;5052239;28;20017;-88
2022/03/27 12:07:41;;;;;;;18.35;16.17;;;31.10;99.90;;;;;;5051534;28;20021;-88
2022/03/27 12:10:07;;;;;;;17.90;16.08;;;31.30;99.90;;;;;;5052930;28;20024;-88
2022/03/27 12:12:34;;;;;;;18.13;15.93;;;30.90;99.90;;;;;;5053712;28;20025;-88
2022/03/27 12:15:04;;;;;;;17.80;16.00;;;31.30;99.90;;;;;;5053830;28;20052;-88
2022/03/27 12:17:35;;;;;;;18.20;16.38;;;31.50;99.90;;;;;;5052920;28;20036;-89
2022/03/27 12:20:01;;;;;;;19.98;17.85;;;32.00;99.90;;;;;;5050865;28;20025;-89
2022/03/27 12:22:51;;;;;;;20.80;18.70;;;31.80;99.90;;;;;;5053828;28;20046;-88
2022/03/27 12:25:28;;;;;;;20.52;17.42;;;31.80;99.90;;;;;;5053288;28;20033;-88
2022/03/27 12:30:44;;;;;;;19.88;17.75;;;32.30;99.90;;;;;;5040620;28;20044;-88
2022/03/27 12:33:10;;;;;;;20.33;18.23;;;31.20;99.90;;;;;;5053041;28;20049;-89
2022/03/27 12:35:36;;;;;;;19.25;17.10;;;31.60;99.90;;;;;;5048950;28;20033;-88
2022/03/27 12:38:02;;;;;;;18.90;16.90;;;32.10;99.90;;;;;;5053050;28;20021;-88
2022/03/27 12:40:28;;;;;;;18.05;16.23;;;32.70;99.90;;;;;;5052697;28;20115;-88
2022/03/27 12:43:09;;;;;;;18.58;16.60;;;32.40;99.90;;;;;;5051366;28;20025;-88
2022/03/27 12:45:40;;;;;;;19.73;17.63;;;32.40;99.90;;;;;;5037851;28;20109;-89
2022/03/27 12:48:08;;;;;;;19.58;16.88;;;32.50;99.90;;;;;;5053268;28;20107;-88
2022/03/27 12:50:37;;;;;;;19.90;17.42;;;32.70;99.90;;;;;;5050978;28;20048;-89
2022/03/27 12:53:29;;;;;;;17.90;16.00;;;31.10;99.90;;;;;;5052176;28;20055;-88